Current Weather

Waukesha County

Waukesha, Wisconsin (KUES)

Report from: Wednesday, May 29, 2024 3:15 AM CDT
Current time: Wednesday, May 29, 2024 3:46 AM CDT

Nearby weather – Weather history – Daily summaries
Weather forecast

Temperature11.0°C (51.8°F)
Dew point10.0°C (50.0°F)
Winds 5 kts (2.6 m/s, 5.8 mph) Northwest (320°)
Visibility10 mi. (16.1 km)
Clouds Scattered clouds 5,500 ft. (1,676 m)
Ceiling: Overcast 7,000 ft. (2,134 m)
Altimeter30.10 in.Hg (1019 mB)
Relative humidity94 %
Density altitude-509 ft. (-155 m)
Remarks Fully automated report
Automated weather observing station with precipitation discriminator
Flight conditions Visual Meteorological Conditions
Raw dataKUES 290815Z AUTO 32005KT 10SM SCT055 OVC070 11/10 A3010 RMK AO2
An error has occurred. This application may no longer respond until reloaded. Reload 🗙